Time;durP1;ratioP1;P1;durP2;ratioP2;P2;SDS_P1;SDS_P2;PMS_P1;PMS_P2;Temp;Humidity;BMP_temperature;BMP_pressure;BME280_temperature;BME280_humidity;BME280_pressure;Samples;Min_cycle;Max_cycle;Signal;HPM_P1;HPM_P2
2023/06/30 00:00:12;;;;;;;6.25;1.85;;;22.10;99.90;;;;;;5082434;28;20036;-72
2023/06/30 00:02:40;;;;;;;2.40;2.20;;;22.10;99.90;;;;;;5082959;28;20072;-72
2023/06/30 00:05:06;;;;;;;2.85;1.92;;;22.10;99.90;;;;;;5063822;28;20036;-72
2023/06/30 00:07:31;;;;;;;3.85;2.00;;;22.10;99.90;;;;;;5081189;28;20021;-72
2023/06/30 00:09:57;;;;;;;1.85;1.67;;;22.10;99.90;;;;;;5079116;28;20052;-72
2023/06/30 00:12:23;;;;;;;2.15;2.00;;;22.00;99.90;;;;;;5080006;28;20013;-72
2023/06/30 00:14:49;;;;;;;3.50;1.80;;;22.10;99.90;;;;;;5084264;28;20550;-72
2023/06/30 00:17:14;;;;;;;4.13;2.45;;;22.10;99.90;;;;;;5085443;28;20020;-72
2023/06/30 00:19:40;;;;;;;1.80;1.70;;;22.00;99.90;;;;;;5084991;28;20023;-72
2023/06/30 00:22:06;;;;;;;2.35;1.73;;;22.00;99.90;;;;;;5067371;28;20096;-72
2023/06/30 00:24:32;;;;;;;3.45;1.92;;;22.10;99.90;;;;;;5085220;28;20359;-72
2023/06/30 00:26:57;;;;;;;1.80;1.70;;;22.10;99.90;;;;;;5065399;28;20024;-72
2023/06/30 00:29:23;;;;;;;4.30;2.13;;;22.10;99.90;;;;;;5083982;28;20442;-72
2023/06/30 00:31:52;;;;;;;1.77;1.67;;;22.10;99.90;;;;;;5080444;28;20027;-72
2023/06/30 00:34:17;;;;;;;2.17;1.95;;;22.00;99.90;;;;;;5066821;28;20081;-72
2023/06/30 00:36:43;;;;;;;5.50;1.88;;;22.10;99.90;;;;;;5082280;28;20028;-72
2023/06/30 00:39:09;;;;;;;5.90;1.55;;;22.00;99.90;;;;;;5064834;28;20028;-72
2023/06/30 00:41:35;;;;;;;2.25;1.67;;;22.00;99.90;;;;;;5078617;28;20020;-72
2023/06/30 00:44:01;;;;;;;7.00;2.00;;;22.10;99.90;;;;;;5082614;28;20074;-72
2023/06/30 00:46:28;;;;;;;1.50;1.40;;;22.10;99.90;;;;;;5078529;28;20032;-72
2023/06/30 00:48:54;;;;;;;2.17;1.77;;;22.10;99.90;;;;;;5083498;28;20029;-72
2023/06/30 00:51:20;;;;;;;2.63;1.60;;;22.20;99.90;;;;;;5077651;28;20035;-72
2023/06/30 00:53:45;;;;;;;3.15;1.70;;;22.20;99.90;;;;;;5084218;28;20028;-72
2023/06/30 00:56:11;;;;;;;4.68;1.77;;;22.10;99.90;;;;;;5077360;28;20117;-72
2023/06/30 00:58:37;;;;;;;1.80;1.52;;;22.10;99.90;;;;;;5070800;28;20024;-72
2023/06/30 01:01:11;;;;;;;4.78;1.30;;;22.10;99.90;;;;;;5080353;28;20044;-72
2023/06/30 01:03:49;;;;;;;7.00;1.65;;;22.10;99.90;;;;;;5081278;28;20032;-72
2023/06/30 01:06:38;;;;;;;1.83;1.52;;;22.10;99.90;;;;;;5078383;28;20256;-72
2023/06/30 01:09:13;;;;;;;1.40;1.30;;;22.10;99.90;;;;;;5081947;28;20119;-72
2023/06/30 01:11:39;;;;;;;2.95;1.40;;;22.20;99.90;;;;;;5078573;28;20103;-72
2023/06/30 01:14:06;;;;;;;1.65;1.50;;;22.20;99.90;;;;;;5081683;28;20062;-72
2023/06/30 01:16:34;;;;;;;1.80;1.70;;;22.20;99.90;;;;;;5081872;28;20168;-72
2023/06/30 01:19:02;;;;;;;2.13;1.17;;;22.20;99.90;;;;;;5083512;28;20024;-72
2023/06/30 01:21:29;;;;;;;3.58;1.63;;;22.20;99.90;;;;;;5071845;28;20122;-71
2023/06/30 01:24:02;;;;;;;4.40;1.73;;;22.20;99.90;;;;;;5082212;28;20386;-72
2023/06/30 01:26:30;;;;;;;3.33;1.70;;;22.20;99.90;;;;;;5076581;28;20097;-72
2023/06/30 01:28:57;;;;;;;1.10;1.10;;;22.20;99.90;;;;;;5084766;28;20484;-72
2023/06/30 01:31:23;;;;;;;1.45;1.35;;;22.20;99.90;;;;;;5082864;28;20059;-72
2023/06/30 01:33:49;;;;;;;2.13;1.63;;;22.20;99.90;;;;;;5080363;28;20363;-72
2023/06/30 01:36:14;;;;;;;3.17;1.50;;;22.20;99.90;;;;;;5084941;28;20039;-72
2023/06/30 01:38:40;;;;;;;9.52;1.52;;;22.20;99.90;;;;;;5083454;28;20475;-73
2023/06/30 01:41:08;;;;;;;2.42;1.50;;;22.20;99.90;;;;;;5081012;28;20020;-72
2023/06/30 01:43:35;;;;;;;1.40;1.17;;;22.20;99.90;;;;;;5079953;28;20027;-72
2023/06/30 01:46:01;;;;;;;6.20;1.45;;;22.30;99.90;;;;;;5079897;28;20028;-72
2023/06/30 01:48:28;;;;;;;1.60;1.50;;;22.30;99.90;;;;;;5081009;28;20055;-72
2023/06/30 01:50:55;;;;;;;1.52;1.42;;;22.30;99.90;;;;;;5080223;28;20032;-73
2023/06/30 01:53:21;;;;;;;2.78;1.45;;;22.20;99.90;;;;;;5064944;28;20124;-72
2023/06/30 01:55:47;;;;;;;1.45;1.35;;;22.20;99.90;;;;;;5077827;28;20115;-72
2023/06/30 01:58:14;;;;;;;1.27;1.17;;;22.30;99.90;;;;;;5080054;28;20028;-72
2023/06/30 02:00:39;;;;;;;3.25;1.35;;;22.30;99.90;;;;;;5079659;28;20025;-73
2023/06/30 02:03:05;;;;;;;1.48;1.38;;;22.30;99.90;;;;;;5080837;28;20389;-72
2023/06/30 02:05:31;;;;;;;2.60;1.55;;;22.30;99.90;;;;;;5080252;28;20056;-72
2023/06/30 02:07:56;;;;;;;1.42;1.33;;;22.30;99.90;;;;;;5078015;28;20024;-72
2023/06/30 02:10:22;;;;;;;1.33;1.23;;;22.30;99.90;;;;;;5079685;28;20029;-72
2023/06/30 02:12:48;;;;;;;1.58;1.48;;;22.30;99.90;;;;;;5080223;28;20055;-72
2023/06/30 02:15:14;;;;;;;1.40;1.30;;;22.30;99.90;;;;;;5077407;28;20024;-72
2023/06/30 02:17:40;;;;;;;2.90;1.20;;;22.30;99.90;;;;;;5083288;28;20059;-72
2023/06/30 02:20:06;;;;;;;1.95;1.17;;;22.30;99.90;;;;;;5062926;28;20035;-72
2023/06/30 02:22:33;;;;;;;2.78;1.27;;;22.30;99.90;;;;;;5065989;28;20093;-72
2023/06/30 02:25:00;;;;;;;1.33;1.23;;;22.30;99.90;;;;;;5078073;28;20032;-72
2023/06/30 02:27:27;;;;;;;1.15;1.10;;;22.30;99.90;;;;;;5080642;28;20508;-72
2023/06/30 02:29:52;;;;;;;1.40;1.30;;;22.30;99.90;;;;;;5079662;28;20021;-72
2023/06/30 02:32:18;;;;;;;2.80;1.15;;;22.30;99.90;;;;;;5078659;28;20016;-72
2023/06/30 02:34:44;;;;;;;1.27;1.13;;;22.30;99.90;;;;;;5077953;28;20040;-72
2023/06/30 02:37:10;;;;;;;1.38;1.27;;;22.20;99.90;;;;;;5077805;28;20387;-72
2023/06/30 02:39:36;;;;;;;1.15;1.10;;;22.30;99.90;;;;;;5081055;28;20020;-72
2023/06/30 02:42:02;;;;;;;3.95;1.30;;;22.30;99.90;;;;;;5061685;28;20016;-72
2023/06/30 02:44:28;;;;;;;2.55;1.50;;;22.30;99.90;;;;;;5081483;28;20162;-72
2023/06/30 02:46:54;;;;;;;2.13;1.17;;;22.30;99.90;;;;;;5078468;28;20060;-72
2023/06/30 02:49:20;;;;;;;1.48;1.10;;;22.30;99.90;;;;;;5083463;28;20023;-72
2023/06/30 02:51:45;;;;;;;1.30;1.20;;;22.30;99.90;;;;;;5081565;28;20114;-72
2023/06/30 02:54:11;;;;;;;2.88;1.30;;;22.30;99.90;;;;;;5079859;28;20543;-72
2023/06/30 02:56:37;;;;;;;2.05;1.27;;;22.30;99.90;;;;;;5080473;28;20089;-72
2023/06/30 02:59:02;;;;;;;1.83;1.45;;;22.30;99.90;;;;;;5082324;28;20050;-72
2023/06/30 03:01:28;;;;;;;0.98;0.98;;;22.30;99.90;;;;;;5080990;28;20044;-72
2023/06/30 03:03:54;;;;;;;1.33;1.10;;;22.30;99.90;;;;;;5055096;28;20016;-72
2023/06/30 03:06:20;;;;;;;2.58;1.25;;;22.30;99.90;;;;;;5077670;28;20502;-72
2023/06/30 03:08:46;;;;;;;1.10;1.02;;;22.30;99.90;;;;;;5064497;28;20036;-72
2023/06/30 03:11:12;;;;;;;1.40;1.30;;;22.30;99.90;;;;;;5082481;28;20021;-72
2023/06/30 03:13:38;;;;;;;1.00;1.00;;;22.30;99.90;;;;;;5060964;28;20029;-72
2023/06/30 03:16:04;;;;;;;0.88;0.88;;;22.30;99.90;;;;;;5085846;28;20078;-72
2023/06/30 03:18:30;;;;;;;3.83;1.23;;;22.40;99.90;;;;;;5084125;28;20020;-72
2023/06/30 03:20:56;;;;;;;2.35;1.50;;;22.40;99.90;;;;;;5085744;28;20039;-72
2023/06/30 03:23:21;;;;;;;2.05;1.10;;;22.30;99.90;;;;;;5069329;28;20016;-72
2023/06/30 03:25:47;;;;;;;2.13;1.30;;;22.30;99.90;;;;;;5082341;28;20039;-72
2023/06/30 03:28:13;;;;;;;1.23;1.13;;;22.30;99.90;;;;;;5084251;28;20024;-72
2023/06/30 03:30:38;;;;;;;2.05;0.75;;;22.30;99.90;;;;;;5063362;28;20041;-72
2023/06/30 03:33:05;;;;;;;1.17;1.08;;;22.30;99.90;;;;;;5063869;28;20492;-72
2023/06/30 03:35:31;;;;;;;1.13;1.05;;;22.30;99.90;;;;;;5080265;28;20032;-72
2023/06/30 03:37:57;;;;;;;1.48;1.35;;;22.30;99.90;;;;;;5085837;28;20017;-73
2023/06/30 03:40:22;;;;;;;2.22;1.33;;;22.20;99.90;;;;;;5081952;28;20359;-72
2023/06/30 03:42:48;;;;;;;1.13;1.08;;;22.20;99.90;;;;;;5079446;28;20111;-72
2023/06/30 03:45:14;;;;;;;1.48;1.13;;;22.20;99.90;;;;;;5085659;28;20039;-72
2023/06/30 03:47:40;;;;;;;1.27;1.17;;;22.30;99.90;;;;;;5079649;28;20495;-72
2023/06/30 03:50:06;;;;;;;1.10;0.98;;;22.30;99.90;;;;;;5067828;28;20024;-72
2023/06/30 03:52:32;;;;;;;1.27;1.00;;;22.40;99.90;;;;;;5084971;28;20016;-72
2023/06/30 03:54:58;;;;;;;2.80;1.33;;;22.40;99.90;;;;;;5085519;28;20367;-72
2023/06/30 03:57:23;;;;;;;2.72;1.38;;;22.40;99.80;;;;;;5080204;28;20028;-72
2023/06/30 03:59:49;;;;;;;2.42;0.98;;;22.40;99.90;;;;;;5083058;28;20047;-72
2023/06/30 04:02:15;;;;;;;2.08;1.25;;;22.50;99.90;;;;;;5084807;28;20137;-72
2023/06/30 04:04:40;;;;;;;2.13;1.38;;;22.40;99.90;;;;;;5083689;28;20035;-72
2023/06/30 04:07:06;;;;;;;1.10;1.10;;;22.50;99.90;;;;;;5079086;28;20024;-72
2023/06/30 04:09:32;;;;;;;1.23;1.13;;;22.50;99.90;;;;;;5082229;28;20402;-72
2023/06/30 04:11:57;;;;;;;2.45;1.10;;;22.50;99.90;;;;;;5065214;28;20020;-72
2023/06/30 04:14:23;;;;;;;7.93;1.73;;;22.50;99.90;;;;;;5083950;28;20024;-71
2023/06/30 04:16:49;;;;;;;2.55;1.75;;;22.50;99.90;;;;;;5081780;28;20054;-72
2023/06/30 04:19:15;;;;;;;1.77;1.30;;;22.30;99.90;;;;;;5083827;28;20133;-71
2023/06/30 04:21:40;;;;;;;1.70;1.10;;;22.10;99.90;;;;;;5079621;28;20475;-72
2023/06/30 04:24:06;;;;;;;3.13;1.35;;;21.90;99.90;;;;;;5082676;28;20504;-72
2023/06/30 04:26:32;;;;;;;2.05;1.30;;;21.80;99.90;;;;;;5079756;28;20032;-72
2023/06/30 04:28:58;;;;;;;1.50;1.33;;;21.70;99.90;;;;;;5082943;28;20021;-72
2023/06/30 04:31:26;;;;;;;1.23;1.23;;;21.70;99.90;;;;;;5083479;28;20023;-72
2023/06/30 04:33:52;;;;;;;1.48;1.38;;;21.60;99.90;;;;;;5064243;28;20033;-72
2023/06/30 04:36:20;;;;;;;1.60;1.50;;;21.50;99.90;;;;;;5081340;28;20367;-74
2023/06/30 04:38:48;;;;;;;3.33;1.77;;;21.50;99.90;;;;;;5082489;28;20031;-75
2023/06/30 04:41:15;;;;;;;1.88;1.77;;;21.50;99.90;;;;;;5068899;28;20051;-74
2023/06/30 04:43:41;;;;;;;3.53;1.30;;;21.50;99.90;;;;;;5064090;28;20031;-74
2023/06/30 04:46:06;;;;;;;2.80;1.80;;;21.40;99.90;;;;;;5079274;28;20025;-74
2023/06/30 04:48:33;;;;;;;3.88;1.42;;;21.40;99.90;;;;;;5089116;28;20077;-74
2023/06/30 04:50:59;;;;;;;3.17;1.70;;;21.40;99.90;;;;;;5061104;28;20039;-74
2023/06/30 04:53:25;;;;;;;4.68;1.58;;;21.40;99.90;;;;;;5079629;28;20106;-74
2023/06/30 04:55:51;;;;;;;3.13;1.50;;;21.40;99.90;;;;;;5080175;28;20439;-74
2023/06/30 04:58:18;;;;;;;1.73;1.50;;;21.40;99.90;;;;;;5085375;28;20023;-74
2023/06/30 05:00:44;;;;;;;1.70;1.50;;;21.30;99.90;;;;;;5081297;28;20048;-74
2023/06/30 05:03:10;;;;;;;2.92;1.45;;;21.20;99.90;;;;;;5082358;28;20060;-74
2023/06/30 05:05:39;;;;;;;2.25;1.67;;;21.30;99.90;;;;;;5087363;28;20070;-74
2023/06/30 05:08:04;;;;;;;1.85;1.65;;;21.30;99.90;;;;;;5080949;28;20036;-74
2023/06/30 05:10:30;;;;;;;2.00;1.90;;;21.30;99.90;;;;;;5085346;28;20454;-74
2023/06/30 05:12:56;;;;;;;4.28;1.70;;;21.40;99.90;;;;;;5081414;28;20028;-74
2023/06/30 05:15:22;;;;;;;1.83;1.55;;;21.40;99.90;;;;;;5080646;28;20036;-74
2023/06/30 05:17:48;;;;;;;5.03;1.90;;;21.40;99.90;;;;;;5088266;28;20485;-74
2023/06/30 05:20:13;;;;;;;2.25;1.80;;;21.50;99.90;;;;;;5081265;28;20021;-74
2023/06/30 05:22:39;;;;;;;1.45;1.38;;;21.50;99.90;;;;;;5082375;28;20031;-75
2023/06/30 05:25:08;;;;;;;3.78;1.70;;;21.50;99.90;;;;;;5087922;28;20382;-75
2023/06/30 05:27:34;;;;;;;2.65;1.90;;;21.50;99.90;;;;;;5080285;28;20508;-75
2023/06/30 05:30:00;;;;;;;2.33;1.67;;;21.60;99.90;;;;;;5080139;28;20024;-74
2023/06/30 05:32:25;;;;;;;3.40;1.90;;;21.60;99.90;;;;;;5082708;28;20021;-74
2023/06/30 05:34:51;;;;;;;2.40;1.80;;;21.70;99.90;;;;;;5081511;28;20605;-75
2023/06/30 05:37:17;;;;;;;2.75;2.13;;;21.60;99.90;;;;;;5083131;28;20035;-74
2023/06/30 05:39:43;;;;;;;3.10;1.90;;;21.60;99.90;;;;;;5082706;28;20012;-74
2023/06/30 05:42:08;;;;;;;3.55;1.70;;;21.60;99.90;;;;;;5082182;28;20091;-74
2023/06/30 05:44:34;;;;;;;1.83;1.73;;;21.60;99.90;;;;;;5082581;28;20021;-75
2023/06/30 05:47:01;;;;;;;1.80;1.65;;;21.70;99.90;;;;;;5082026;28;20020;-74
2023/06/30 05:49:27;;;;;;;4.75;1.60;;;21.80;99.90;;;;;;5084929;28;20031;-74
2023/06/30 05:51:53;;;;;;;1.88;1.63;;;21.90;99.90;;;;;;5079970;28;20027;-74
2023/06/30 05:54:19;;;;;;;2.17;1.95;;;22.10;99.90;;;;;;5084740;28;20028;-74
2023/06/30 05:56:45;;;;;;;2.55;1.80;;;22.20;99.90;;;;;;5081258;28;20024;-74
2023/06/30 05:59:11;;;;;;;4.32;1.70;;;22.30;99.90;;;;;;5081905;28;20098;-74
2023/06/30 06:01:40;;;;;;;2.40;1.50;;;22.40;99.90;;;;;;5074447;28;20586;-74
2023/06/30 06:04:09;;;;;;;2.88;1.67;;;22.50;99.90;;;;;;5083572;28;20024;-74
2023/06/30 06:06:35;;;;;;;6.82;1.95;;;22.50;99.90;;;;;;5076948;28;20016;-74
2023/06/30 06:09:01;;;;;;;1.75;1.45;;;22.50;99.90;;;;;;5082969;28;20035;-75
2023/06/30 06:11:27;;;;;;;2.28;1.60;;;22.60;99.90;;;;;;5076280;28;20490;-74
2023/06/30 06:13:52;;;;;;;2.47;2.28;;;22.70;99.90;;;;;;5087217;28;20024;-74
2023/06/30 06:16:22;;;;;;;1.85;1.50;;;22.70;99.90;;;;;;5093369;28;20027;-74
2023/06/30 06:18:51;;;;;;;4.38;1.80;;;22.70;99.90;;;;;;5087715;28;20016;-74
2023/06/30 06:21:17;;;;;;;2.25;2.00;;;22.80;99.90;;;;;;5058522;28;20111;-74
2023/06/30 06:23:43;;;;;;;2.22;1.73;;;22.80;99.90;;;;;;5093662;28;20547;-74
2023/06/30 06:26:09;;;;;;;2.53;1.45;;;22.80;99.90;;;;;;5092927;28;20028;-74
2023/06/30 06:28:35;;;;;;;3.30;1.60;;;22.90;99.90;;;;;;5085613;28;20036;-74
2023/06/30 06:31:00;;;;;;;2.13;1.48;;;23.00;99.90;;;;;;5074630;28;20031;-74
2023/06/30 06:33:26;;;;;;;2.92;1.67;;;23.00;99.90;;;;;;5081812;28;20073;-75
2023/06/30 06:35:52;;;;;;;2.22;1.65;;;23.00;99.90;;;;;;5093028;28;20089;-74
2023/06/30 06:38:19;;;;;;;5.07;1.75;;;23.10;99.90;;;;;;5080162;28;20394;-74
2023/06/30 06:40:46;;;;;;;2.13;1.88;;;23.10;99.90;;;;;;5087292;28;20020;-74
2023/06/30 06:43:15;;;;;;;1.42;1.33;;;23.10;99.90;;;;;;5084517;28;20062;-74
2023/06/30 06:45:43;;;;;;;1.85;1.67;;;23.20;99.90;;;;;;5074594;28;20032;-74
2023/06/30 06:48:35;;;;;;;1.90;1.80;;;23.30;99.90;;;;;;5092878;28;20036;-74
2023/06/30 06:51:03;;;;;;;3.35;1.63;;;23.40;99.90;;;;;;5089191;28;20040;-75
2023/06/30 06:53:33;;;;;;;3.45;1.48;;;23.40;99.90;;;;;;5093102;28;20012;-74
2023/06/30 06:56:00;;;;;;;1.40;1.30;;;23.40;99.90;;;;;;5072916;28;20123;-75
2023/06/30 06:58:29;;;;;;;1.70;1.60;;;23.50;99.90;;;;;;5083355;28;20020;-74
2023/06/30 07:00:55;;;;;;;2.47;1.70;;;23.60;99.90;;;;;;5090622;28;20435;-74
2023/06/30 07:03:22;;;;;;;1.33;1.23;;;23.70;99.90;;;;;;5092988;28;20075;-74
2023/06/30 07:05:48;;;;;;;2.80;2.03;;;23.80;99.90;;;;;;5074629;28;20092;-74
2023/06/30 07:08:18;;;;;;;2.22;1.60;;;23.80;99.90;;;;;;5088404;28;20024;-74
2023/06/30 07:10:45;;;;;;;2.85;1.75;;;24.00;99.90;;;;;;5068710;28;20036;-74
2023/06/30 07:13:12;;;;;;;3.00;2.08;;;24.00;99.90;;;;;;5054533;28;20030;-74
2023/06/30 07:15:38;;;;;;;5.55;2.05;;;24.10;99.90;;;;;;5075898;28;20602;-74
2023/06/30 07:18:04;;;;;;;4.88;2.15;;;24.20;99.90;;;;;;5074474;28;20125;-75
2023/06/30 07:20:29;;;;;;;6.13;2.10;;;24.20;99.90;;;;;;5071859;28;20024;-74
2023/06/30 07:22:56;;;;;;;3.00;2.10;;;24.30;99.90;;;;;;5073668;28;20024;-74
2023/06/30 07:25:25;;;;;;;4.40;2.38;;;24.30;99.90;;;;;;5075465;28;20439;-74
2023/06/30 07:27:57;;;;;;;3.63;2.00;;;24.30;99.90;;;;;;5078934;28;20025;-74
2023/06/30 07:30:25;;;;;;;7.43;2.10;;;24.40;99.90;;;;;;5075542;28;20502;-74
2023/06/30 07:32:51;;;;;;;2.85;1.90;;;24.40;99.90;;;;;;5072572;28;20382;-74
2023/06/30 07:35:18;;;;;;;9.20;2.28;;;24.40;99.90;;;;;;5074851;28;20021;-74
2023/06/30 07:37:44;;;;;;;5.93;2.13;;;24.40;99.90;;;;;;5082108;28;20028;-74
2023/06/30 07:40:11;;;;;;;4.53;1.92;;;24.50;99.90;;;;;;5079017;28;20040;-74
2023/06/30 07:42:39;;;;;;;4.10;1.92;;;24.50;99.90;;;;;;5083926;28;20048;-74
2023/06/30 07:45:16;;;;;;;5.13;2.47;;;24.50;99.90;;;;;;5081310;28;20014;-75
2023/06/30 07:47:43;;;;;;;7.38;2.17;;;24.60;99.90;;;;;;5086663;28;20440;-75
2023/06/30 07:50:11;;;;;;;5.00;2.30;;;24.60;99.90;;;;;;5077881;28;20548;-75
2023/06/30 07:52:42;;;;;;;2.08;1.50;;;24.70;99.90;;;;;;5085784;28;20375;-75
2023/06/30 07:55:07;;;;;;;4.28;2.00;;;24.80;99.90;;;;;;5067472;28;20496;-75
2023/06/30 07:57:33;;;;;;;4.40;2.05;;;24.80;99.90;;;;;;5080419;28;20024;-75
2023/06/30 07:59:59;;;;;;;2.95;1.83;;;24.90;99.90;;;;;;5085859;28;20039;-74
2023/06/30 08:02:25;;;;;;;1.83;1.70;;;25.00;99.90;;;;;;5081428;28;20042;-75
2023/06/30 08:04:50;;;;;;;3.33;1.65;;;25.00;97.70;;;;;;5084505;28;20020;-74
2023/06/30 08:07:16;;;;;;;4.38;2.10;;;25.00;99.30;;;;;;5086590;28;20024;-75
2023/06/30 08:09:42;;;;;;;8.80;1.90;;;25.10;99.90;;;;;;5083110;28;20128;-75
2023/06/30 08:12:09;;;;;;;3.50;1.88;;;25.10;99.90;;;;;;5084825;28;20016;-75
2023/06/30 08:14:35;;;;;;;4.65;1.70;;;25.20;99.90;;;;;;5086322;28;20016;-74
2023/06/30 08:17:02;;;;;;;2.83;2.10;;;25.30;99.90;;;;;;5082449;28;20478;-75
2023/06/30 08:19:28;;;;;;;2.22;2.03;;;25.40;99.90;;;;;;5075241;28;20056;-74
2023/06/30 08:21:54;;;;;;;8.80;2.60;;;25.40;99.90;;;;;;5060292;28;20377;-75
2023/06/30 08:24:20;;;;;;;3.25;1.88;;;25.50;99.90;;;;;;5083266;28;20594;-75
2023/06/30 08:26:46;;;;;;;2.60;1.80;;;25.50;99.90;;;;;;5084519;28;20043;-75
2023/06/30 08:29:13;;;;;;;3.58;2.13;;;25.40;99.90;;;;;;5087489;28;20059;-75
2023/06/30 08:31:39;;;;;;;2.72;1.70;;;25.40;99.90;;;;;;5085508;28;20689;-75
2023/06/30 08:34:05;;;;;;;1.75;1.65;;;25.30;99.90;;;;;;5083085;28;20030;-74
2023/06/30 08:36:31;;;;;;;4.15;2.30;;;25.40;99.90;;;;;;5087856;28;20050;-74
2023/06/30 08:38:57;;;;;;;4.03;1.83;;;25.40;99.90;;;;;;5087686;28;20058;-74
2023/06/30 08:41:24;;;;;;;3.85;1.88;;;25.50;99.90;;;;;;5083210;28;20047;-75
2023/06/30 08:43:51;;;;;;;2.70;2.20;;;25.50;99.90;;;;;;5078852;28;20058;-74
2023/06/30 08:46:19;;;;;;;3.78;1.90;;;25.60;99.90;;;;;;5075805;28;20024;-74
2023/06/30 08:48:45;;;;;;;2.22;2.03;;;25.60;99.90;;;;;;5083306;28;20016;-75
2023/06/30 08:51:11;;;;;;;2.40;1.88;;;25.70;99.90;;;;;;5077732;28;20047;-74
2023/06/30 08:53:37;;;;;;;2.42;1.80;;;25.70;99.90;;;;;;5077893;28;20028;-74
2023/06/30 08:56:04;;;;;;;2.03;1.80;;;25.70;99.90;;;;;;5075716;28;20039;-74
2023/06/30 08:58:30;;;;;;;8.07;2.78;;;25.80;99.90;;;;;;5079286;28;20512;-75
2023/06/30 09:00:56;;;;;;;3.65;2.28;;;25.80;99.20;;;;;;5073160;28;20511;-74
2023/06/30 09:03:25;;;;;;;2.35;1.88;;;25.90;99.20;;;;;;5088198;28;20024;-74
2023/06/30 09:05:55;;;;;;;5.10;2.20;;;25.90;98.30;;;;;;5082937;28;20027;-74
2023/06/30 09:08:26;;;;;;;2.45;2.35;;;26.00;98.00;;;;;;5078089;28;20020;-75
2023/06/30 09:10:53;;;;;;;5.63;2.30;;;26.00;97.40;;;;;;5068872;28;20062;-75
2023/06/30 09:13:21;;;;;;;7.45;2.88;;;26.10;97.90;;;;;;5088513;28;20039;-75
2023/06/30 09:15:48;;;;;;;3.72;2.20;;;26.20;97.70;;;;;;5078886;28;20035;-75
2023/06/30 09:18:14;;;;;;;2.30;2.10;;;26.20;97.60;;;;;;5086276;28;20039;-75
2023/06/30 09:20:43;;;;;;;3.00;2.22;;;26.30;98.90;;;;;;5084992;28;20020;-75
2023/06/30 09:23:09;;;;;;;4.70;1.83;;;26.40;98.90;;;;;;5081695;28;20020;-75
2023/06/30 09:25:39;;;;;;;2.40;2.20;;;26.50;99.40;;;;;;5087905;28;20144;-74
2023/06/30 09:28:11;;;;;;;1.88;1.70;;;26.50;99.20;;;;;;5079615;28;20016;-75
2023/06/30 09:30:40;;;;;;;5.75;2.35;;;26.50;97.70;;;;;;5075083;28;20063;-74
2023/06/30 09:33:06;;;;;;;3.65;2.17;;;26.50;98.30;;;;;;5078358;28;20027;-74
2023/06/30 09:35:40;;;;;;;2.97;2.58;;;26.50;96.30;;;;;;5085862;28;20059;-74
2023/06/30 09:38:28;;;;;;;3.47;2.00;;;26.50;96.50;;;;;;5090411;28;20829;-75
2023/06/30 09:40:53;;;;;;;2.33;2.10;;;26.60;97.60;;;;;;5069583;28;20020;-74
2023/06/30 09:43:22;;;;;;;5.15;1.55;;;26.70;98.60;;;;;;5090082;28;20032;-75
2023/06/30 09:45:54;;;;;;;4.53;1.95;;;26.70;98.00;;;;;;5084857;28;20050;-74
2023/06/30 09:48:20;;;;;;;4.88;2.33;;;26.80;97.50;;;;;;5081237;28;20033;-74
2023/06/30 09:50:46;;;;;;;2.25;2.05;;;26.90;96.40;;;;;;5079543;28;20050;-74
2023/06/30 09:53:17;;;;;;;5.90;2.33;;;26.90;96.00;;;;;;5076277;28;20056;-75
2023/06/30 09:55:48;;;;;;;3.25;2.35;;;27.00;96.00;;;;;;5079551;28;20031;-75
2023/06/30 09:58:17;;;;;;;4.23;2.47;;;27.10;96.60;;;;;;5079169;28;20016;-75
2023/06/30 10:00:44;;;;;;;1.98;1.80;;;27.20;95.60;;;;;;5079294;28;20366;-74
2023/06/30 10:03:10;;;;;;;2.95;2.33;;;27.30;97.20;;;;;;5076231;28;20055;-75
2023/06/30 10:05:37;;;;;;;3.20;1.98;;;27.40;95.30;;;;;;5084344;28;20516;-75
2023/06/30 10:08:03;;;;;;;2.17;2.08;;;27.50;96.60;;;;;;5079051;28;20570;-75
2023/06/30 10:10:32;;;;;;;2.75;2.00;;;27.50;96.20;;;;;;5077455;28;20036;-74
2023/06/30 10:12:59;;;;;;;3.40;2.65;;;27.50;95.10;;;;;;5078677;28;20044;-75
2023/06/30 10:15:25;;;;;;;2.35;2.25;;;27.50;95.50;;;;;;5085276;28;20031;-75
2023/06/30 10:17:54;;;;;;;3.40;2.55;;;27.50;95.00;;;;;;5073260;28;20036;-74
2023/06/30 10:20:20;;;;;;;3.30;2.20;;;27.50;95.60;;;;;;5075713;28;20020;-75
2023/06/30 10:22:46;;;;;;;2.75;2.13;;;27.50;95.10;;;;;;5072673;28;20020;-74
2023/06/30 10:25:16;;;;;;;5.03;2.17;;;27.50;95.20;;;;;;5072621;28;20028;-74
2023/06/30 10:27:42;;;;;;;2.97;2.00;;;27.40;95.20;;;;;;5072574;28;20020;-74
2023/06/30 10:30:09;;;;;;;5.38;2.45;;;27.30;95.20;;;;;;5079871;28;20036;-74
2023/06/30 10:32:35;;;;;;;3.60;1.85;;;27.20;95.30;;;;;;5071696;28;20028;-74
2023/06/30 10:35:01;;;;;;;6.35;2.10;;;27.10;96.00;;;;;;5079224;28;20601;-74
2023/06/30 10:37:27;;;;;;;5.63;2.10;;;27.10;95.00;;;;;;5076907;28;20024;-74
2023/06/30 10:39:53;;;;;;;2.75;2.10;;;27.00;95.20;;;;;;5062991;28;20047;-74
2023/06/30 10:42:20;;;;;;;2.05;1.92;;;27.10;95.70;;;;;;5069825;28;20051;-74
2023/06/30 10:44:49;;;;;;;4.30;2.60;;;27.00;95.70;;;;;;5071464;28;20378;-74
2023/06/30 10:47:22;;;;;;;2.05;1.95;;;27.00;95.60;;;;;;5077582;28;20033;-74
2023/06/30 10:49:53;;;;;;;2.15;2.05;;;27.00;95.60;;;;;;5081221;28;20012;-74
2023/06/30 10:52:26;;;;;;;2.35;2.15;;;27.00;93.90;;;;;;5073887;28;20035;-74
2023/06/30 10:54:52;;;;;;;5.57;2.25;;;26.90;93.50;;;;;;5080941;28;20036;-74
2023/06/30 10:57:23;;;;;;;3.78;2.67;;;26.90;94.80;;;;;;5078343;28;20402;-74
2023/06/30 11:00:10;;;;;;;4.82;2.10;;;26.70;95.60;;;;;;5072976;28;20016;-74
2023/06/30 11:02:37;;;;;;;2.00;1.90;;;26.70;94.80;;;;;;5081409;28;20577;-75
2023/06/30 11:05:22;;;;;;;11.68;2.08;;;26.50;94.90;;;;;;5063096;28;20033;-75
2023/06/30 11:07:54;;;;;;;2.90;1.75;;;26.40;94.70;;;;;;5074282;28;20048;-75
2023/06/30 11:10:32;;;;;;;4.82;2.20;;;26.30;94.40;;;;;;5084154;28;20024;-75
2023/06/30 11:13:00;;;;;;;1.75;1.65;;;26.20;93.90;;;;;;5077273;28;20095;-74
2023/06/30 11:15:42;;;;;;;3.40;1.80;;;26.10;93.70;;;;;;5088405;28;20028;-74
2023/06/30 11:18:23;;;;;;;2.33;2.13;;;26.00;93.00;;;;;;5082261;28;20185;-74
2023/06/30 11:20:58;;;;;;;2.25;1.85;;;25.90;93.20;;;;;;5084036;28;20048;-75
2023/06/30 11:23:27;;;;;;;6.63;2.72;;;25.80;94.70;;;;;;5069972;28;20090;-75
2023/06/30 11:25:55;;;;;;;5.65;2.35;;;25.70;96.20;;;;;;5088139;28;20028;-75
2023/06/30 11:28:24;;;;;;;6.55;2.20;;;25.40;99.00;;;;;;5079191;28;20028;-74
2023/06/30 11:30:49;;;;;;;3.50;2.35;;;25.30;99.90;;;;;;5078817;28;20032;-74
2023/06/30 11:33:15;;;;;;;2.53;2.33;;;25.00;99.90;;;;;;5082547;28;20025;-75
2023/06/30 11:35:41;;;;;;;2.97;2.78;;;25.00;99.90;;;;;;5079682;28;20071;-74
2023/06/30 11:38:09;;;;;;;3.42;2.80;;;24.90;99.90;;;;;;5087192;28;20020;-74
2023/06/30 11:40:34;;;;;;;3.58;2.72;;;24.60;99.90;;;;;;5082154;28;20066;-75
2023/06/30 11:43:02;;;;;;;3.38;3.08;;;24.60;99.90;;;;;;5090425;28;20024;-75
2023/06/30 11:45:31;;;;;;;5.80;2.95;;;24.60;99.90;;;;;;5082977;28;20024;-75
2023/06/30 11:47:57;;;;;;;3.40;3.10;;;24.60;99.90;;;;;;5075324;28;20063;-75
2023/06/30 11:50:25;;;;;;;4.35;3.30;;;24.60;99.90;;;;;;5080562;28;20469;-74
2023/06/30 11:52:51;;;;;;;3.97;3.15;;;24.60;99.90;;;;;;5082116;28;20408;-75
2023/06/30 11:55:17;;;;;;;3.30;3.10;;;24.50;99.90;;;;;;5080337;28;20019;-75
2023/06/30 11:57:47;;;;;;;4.05;3.15;;;24.50;99.90;;;;;;5075853;28;20389;-75
2023/06/30 12:00:14;;;;;;;3.88;2.90;;;24.50;99.90;;;;;;5087915;28;20020;-75
2023/06/30 12:02:47;;;;;;;3.20;2.90;;;24.30;99.90;;;;;;5057841;28;20764;-75
2023/06/30 12:05:16;;;;;;;3.20;3.00;;;24.20;99.90;;;;;;5066904;28;20025;-75
2023/06/30 12:07:44;;;;;;;7.53;2.92;;;24.10;99.90;;;;;;5075403;28;20024;-75
2023/06/30 12:10:12;;;;;;;3.20;2.90;;;24.20;99.90;;;;;;5065825;28;20545;-75
2023/06/30 12:12:39;;;;;;;3.67;3.30;;;24.10;99.90;;;;;;5056949;28;20100;-75
2023/06/30 12:15:10;;;;;;;3.47;3.25;;;24.10;99.90;;;;;;5061356;28;20043;-74
2023/06/30 12:17:42;;;;;;;4.57;3.35;;;24.10;99.90;;;;;;5066475;28;20551;-75
2023/06/30 12:20:08;;;;;;;5.30;3.20;;;24.00;99.90;;;;;;5075422;28;20016;-75
2023/06/30 12:22:41;;;;;;;3.17;2.90;;;24.00;99.90;;;;;;5075687;28;20020;-75
2023/06/30 12:25:11;;;;;;;3.05;2.85;;;23.90;99.90;;;;;;5088189;28;20478;-75
2023/06/30 12:27:41;;;;;;;5.18;3.15;;;24.00;99.90;;;;;;5054237;28;20032;-75
2023/06/30 12:30:18;;;;;;;6.72;3.03;;;24.00;99.90;;;;;;5061308;28;20043;-75
2023/06/30 12:32:44;;;;;;;3.05;2.65;;;24.20;99.90;;;;;;5086264;28;20102;-75
2023/06/30 12:35:11;;;;;;;7.82;3.17;;;24.40;99.90;;;;;;5059667;28;20035;-75
2023/06/30 12:37:44;;;;;;;5.53;3.10;;;24.40;99.90;;;;;;5058375;28;20516;-75
2023/06/30 12:40:10;;;;;;;3.75;3.05;;;24.40;99.90;;;;;;5074980;28;20058;-76
2023/06/30 12:42:36;;;;;;;6.38;2.90;;;24.30;99.90;;;;;;5063931;28;20075;-75
2023/06/30 12:45:03;;;;;;;5.70;3.00;;;24.30;99.90;;;;;;5066878;28;20021;-75
2023/06/30 12:47:29;;;;;;;2.80;2.60;;;24.40;99.90;;;;;;5055108;28;20031;-75